sensor_id;sensor_type;location;lat;lon;timestamp;temperature;humidity
2999;DHT22;1509;51.964;7.628;2022-08-19T00:02:04;20.00;99.90
2999;DHT22;1509;51.964;7.628;2022-08-19T00:04:33;19.90;99.90
2999;DHT22;1509;51.964;7.628;2022-08-19T00:07:02;19.90;99.90
2999;DHT22;1509;51.964;7.628;2022-08-19T00:09:28;19.90;99.90
2999;DHT22;1509;51.964;7.628;2022-08-19T00:11:55;19.80;99.90
2999;DHT22;1509;51.964;7.628;2022-08-19T00:14:22;19.80;99.90
2999;DHT22;1509;51.964;7.628;2022-08-19T00:16:49;19.80;99.90
2999;DHT22;1509;51.964;7.628;2022-08-19T00:19:16;19.80;99.90
2999;DHT22;1509;51.964;7.628;2022-08-19T00:21:42;19.80;99.90
2999;DHT22;1509;51.964;7.628;2022-08-19T00:24:09;19.70;99.90
2999;DHT22;1509;51.964;7.628;2022-08-19T00:26:36;19.70;99.90
2999;DHT22;1509;51.964;7.628;2022-08-19T00:29:03;19.70;99.90
2999;DHT22;1509;51.964;7.628;2022-08-19T00:31:29;19.60;99.90
2999;DHT22;1509;51.964;7.628;2022-08-19T00:33:56;19.60;99.90
2999;DHT22;1509;51.964;7.628;2022-08-19T00:36:22;19.60;99.90
2999;DHT22;1509;51.964;7.628;2022-08-19T00:38:48;19.60;99.90
2999;DHT22;1509;51.964;7.628;2022-08-19T00:41:15;19.60;99.90
2999;DHT22;1509;51.964;7.628;2022-08-19T00:43:43;19.60;99.90
2999;DHT22;1509;51.964;7.628;2022-08-19T00:46:09;19.60;99.90
2999;DHT22;1509;51.964;7.628;2022-08-19T00:48:35;19.50;99.90
2999;DHT22;1509;51.964;7.628;2022-08-19T00:51:02;19.50;99.90
2999;DHT22;1509;51.964;7.628;2022-08-19T00:53:30;19.50;99.90
2999;DHT22;1509;51.964;7.628;2022-08-19T00:55:59;19.50;99.90
2999;DHT22;1509;51.964;7.628;2022-08-19T00:58:30;19.50;99.90
2999;DHT22;1509;51.964;7.628;2022-08-19T01:00:57;19.40;99.90
2999;DHT22;1509;51.964;7.628;2022-08-19T01:03:23;19.40;99.90
2999;DHT22;1509;51.964;7.628;2022-08-19T01:05:50;19.40;99.90
2999;DHT22;1509;51.964;7.628;2022-08-19T01:08:17;19.40;99.90
2999;DHT22;1509;51.964;7.628;2022-08-19T01:10:47;19.40;99.90
2999;DHT22;1509;51.964;7.628;2022-08-19T01:13:15;19.30;99.90
2999;DHT22;1509;51.964;7.628;2022-08-19T01:15:46;19.30;99.90
2999;DHT22;1509;51.964;7.628;2022-08-19T01:18:15;19.30;99.90
2999;DHT22;1509;51.964;7.628;2022-08-19T01:20:42;19.30;99.90
2999;DHT22;1509;51.964;7.628;2022-08-19T01:23:08;19.30;99.90
2999;DHT22;1509;51.964;7.628;2022-08-19T01:28:07;19.30;99.90
2999;DHT22;1509;51.964;7.628;2022-08-19T01:30:35;19.20;99.90
2999;DHT22;1509;51.964;7.628;2022-08-19T01:33:01;19.30;99.90
2999;DHT22;1509;51.964;7.628;2022-08-19T01:35:30;19.10;99.90
2999;DHT22;1509;51.964;7.628;2022-08-19T01:38:02;19.10;99.90
2999;DHT22;1509;51.964;7.628;2022-08-19T01:40:32;19.10;99.90
2999;DHT22;1509;51.964;7.628;2022-08-19T01:42:59;19.20;99.90
2999;DHT22;1509;51.964;7.628;2022-08-19T01:45:27;19.20;99.90
2999;DHT22;1509;51.964;7.628;2022-08-19T01:47:54;19.20;99.90
2999;DHT22;1509;51.964;7.628;2022-08-19T01:50:20;19.10;99.90
2999;DHT22;1509;51.964;7.628;2022-08-19T01:52:46;19.10;99.90
2999;DHT22;1509;51.964;7.628;2022-08-19T01:55:16;19.10;99.90
2999;DHT22;1509;51.964;7.628;2022-08-19T01:57:46;19.10;99.90
2999;DHT22;1509;51.964;7.628;2022-08-19T02:00:15;19.10;99.90
2999;DHT22;1509;51.964;7.628;2022-08-19T02:02:42;19.10;99.90
2999;DHT22;1509;51.964;7.628;2022-08-19T02:05:08;19.10;99.90
2999;DHT22;1509;51.964;7.628;2022-08-19T02:07:35;19.10;99.90
2999;DHT22;1509;51.964;7.628;2022-08-19T02:10:16;19.00;99.90
2999;DHT22;1509;51.964;7.628;2022-08-19T02:12:42;19.10;99.90
2999;DHT22;1509;51.964;7.628;2022-08-19T02:15:09;19.00;99.90
2999;DHT22;1509;51.964;7.628;2022-08-19T02:17:35;19.00;99.90
2999;DHT22;1509;51.964;7.628;2022-08-19T02:20:00;19.00;99.90
2999;DHT22;1509;51.964;7.628;2022-08-19T02:22:26;19.00;99.90
2999;DHT22;1509;51.964;7.628;2022-08-19T02:24:53;19.00;99.90
2999;DHT22;1509;51.964;7.628;2022-08-19T02:27:19;19.00;99.90
2999;DHT22;1509;51.964;7.628;2022-08-19T02:29:47;19.00;99.90
2999;DHT22;1509;51.964;7.628;2022-08-19T02:32:14;18.90;99.90
2999;DHT22;1509;51.964;7.628;2022-08-19T02:34:42;18.90;99.90
2999;DHT22;1509;51.964;7.628;2022-08-19T02:37:08;18.90;99.90
2999;DHT22;1509;51.964;7.628;2022-08-19T02:39:53;18.90;99.90
2999;DHT22;1509;51.964;7.628;2022-08-19T02:42:19;18.90;99.90
2999;DHT22;1509;51.964;7.628;2022-08-19T02:44:45;18.80;99.90
2999;DHT22;1509;51.964;7.628;2022-08-19T02:47:10;18.80;99.90
2999;DHT22;1509;51.964;7.628;2022-08-19T02:49:36;18.90;99.90
2999;DHT22;1509;51.964;7.628;2022-08-19T02:52:03;18.90;99.90
2999;DHT22;1509;51.964;7.628;2022-08-19T02:54:28;18.90;99.90
2999;DHT22;1509;51.964;7.628;2022-08-19T02:56:54;18.90;99.90
2999;DHT22;1509;51.964;7.628;2022-08-19T02:59:20;18.80;99.90
2999;DHT22;1509;51.964;7.628;2022-08-19T03:01:46;18.80;99.90
2999;DHT22;1509;51.964;7.628;2022-08-19T03:04:14;18.80;99.90
2999;DHT22;1509;51.964;7.628;2022-08-19T03:06:41;18.70;99.90
2999;DHT22;1509;51.964;7.628;2022-08-19T03:09:07;18.70;99.90
2999;DHT22;1509;51.964;7.628;2022-08-19T03:11:33;18.60;99.90
2999;DHT22;1509;51.964;7.628;2022-08-19T03:13:59;18.60;99.90
2999;DHT22;1509;51.964;7.628;2022-08-19T03:16:27;18.50;99.90
2999;DHT22;1509;51.964;7.628;2022-08-19T03:18:55;18.50;99.90
2999;DHT22;1509;51.964;7.628;2022-08-19T03:21:24;18.50;99.90
2999;DHT22;1509;51.964;7.628;2022-08-19T03:23:53;18.50;99.90
2999;DHT22;1509;51.964;7.628;2022-08-19T03:26:18;18.50;99.90
2999;DHT22;1509;51.964;7.628;2022-08-19T03:28:45;18.50;99.90
2999;DHT22;1509;51.964;7.628;2022-08-19T03:31:17;18.40;99.90
2999;DHT22;1509;51.964;7.628;2022-08-19T03:33:44;18.50;99.90
2999;DHT22;1509;51.964;7.628;2022-08-19T03:36:17;18.40;99.90
2999;DHT22;1509;51.964;7.628;2022-08-19T03:38:45;18.40;99.90
2999;DHT22;1509;51.964;7.628;2022-08-19T03:41:18;18.40;99.90
2999;DHT22;1509;51.964;7.628;2022-08-19T03:43:45;18.50;99.90
2999;DHT22;1509;51.964;7.628;2022-08-19T03:46:20;18.40;99.90
2999;DHT22;1509;51.964;7.628;2022-08-19T03:48:47;18.40;99.90
2999;DHT22;1509;51.964;7.628;2022-08-19T03:53:47;18.40;99.90
2999;DHT22;1509;51.964;7.628;2022-08-19T03:56:13;18.40;99.90
2999;DHT22;1509;51.964;7.628;2022-08-19T03:58:40;18.40;99.90
2999;DHT22;1509;51.964;7.628;2022-08-19T04:01:11;18.30;99.90
2999;DHT22;1509;51.964;7.628;2022-08-19T04:03:38;18.40;99.90
2999;DHT22;1509;51.964;7.628;2022-08-19T04:06:18;18.40;99.90
2999;DHT22;1509;51.964;7.628;2022-08-19T04:08:45;18.40;99.90
2999;DHT22;1509;51.964;7.628;2022-08-19T04:11:13;18.40;99.90
2999;DHT22;1509;51.964;7.628;2022-08-19T04:13:40;18.40;99.90
2999;DHT22;1509;51.964;7.628;2022-08-19T04:16:06;18.30;99.90
2999;DHT22;1509;51.964;7.628;2022-08-19T04:18:33;18.30;99.90
2999;DHT22;1509;51.964;7.628;2022-08-19T04:20:59;18.30;99.90
2999;DHT22;1509;51.964;7.628;2022-08-19T04:23:24;18.30;99.90
2999;DHT22;1509;51.964;7.628;2022-08-19T04:25:50;18.30;99.90
2999;DHT22;1509;51.964;7.628;2022-08-19T04:28:16;18.30;99.90
2999;DHT22;1509;51.964;7.628;2022-08-19T04:30:46;18.30;99.90
2999;DHT22;1509;51.964;7.628;2022-08-19T04:33:18;18.30;99.90
2999;DHT22;1509;51.964;7.628;2022-08-19T04:35:47;18.30;99.90
2999;DHT22;1509;51.964;7.628;2022-08-19T04:38:14;18.30;99.90
2999;DHT22;1509;51.964;7.628;2022-08-19T04:40:43;18.30;99.90
2999;DHT22;1509;51.964;7.628;2022-08-19T04:43:28;18.30;99.90
2999;DHT22;1509;51.964;7.628;2022-08-19T04:45:54;18.30;99.90
2999;DHT22;1509;51.964;7.628;2022-08-19T04:48:20;18.30;99.90
2999;DHT22;1509;51.964;7.628;2022-08-19T04:50:51;18.30;99.90
2999;DHT22;1509;51.964;7.628;2022-08-19T04:53:22;18.40;99.90
2999;DHT22;1509;51.964;7.628;2022-08-19T04:55:47;18.40;99.90
2999;DHT22;1509;51.964;7.628;2022-08-19T04:58:13;18.40;99.90
2999;DHT22;1509;51.964;7.628;2022-08-19T05:00:39;18.40;99.90
2999;DHT22;1509;51.964;7.628;2022-08-19T05:03:05;18.50;99.90
2999;DHT22;1509;51.964;7.628;2022-08-19T05:05:31;18.50;99.90
2999;DHT22;1509;51.964;7.628;2022-08-19T05:07:57;18.60;99.90
2999;DHT22;1509;51.964;7.628;2022-08-19T05:10:22;18.60;99.90
2999;DHT22;1509;51.964;7.628;2022-08-19T05:12:48;18.60;99.90
2999;DHT22;1509;51.964;7.628;2022-08-19T05:15:14;18.70;99.90
2999;DHT22;1509;51.964;7.628;2022-08-19T05:17:39;18.60;99.90
2999;DHT22;1509;51.964;7.628;2022-08-19T05:20:25;18.70;99.90
2999;DHT22;1509;51.964;7.628;2022-08-19T05:23:11;18.80;99.90
2999;DHT22;1509;51.964;7.628;2022-08-19T05:25:39;18.80;99.90
2999;DHT22;1509;51.964;7.628;2022-08-19T05:28:05;18.80;99.90
2999;DHT22;1509;51.964;7.628;2022-08-19T05:30:30;18.90;99.90
2999;DHT22;1509;51.964;7.628;2022-08-19T05:32:57;19.00;99.90
2999;DHT22;1509;51.964;7.628;2022-08-19T05:35:23;19.00;99.90
2999;DHT22;1509;51.964;7.628;2022-08-19T05:37:49;19.10;99.90
2999;DHT22;1509;51.964;7.628;2022-08-19T05:40:14;19.10;99.90
2999;DHT22;1509;51.964;7.628;2022-08-19T05:42:40;19.30;99.90
2999;DHT22;1509;51.964;7.628;2022-08-19T05:45:08;19.40;99.90
2999;DHT22;1509;51.964;7.628;2022-08-19T05:47:34;19.40;99.90
2999;DHT22;1509;51.964;7.628;2022-08-19T05:50:00;19.60;99.90
2999;DHT22;1509;51.964;7.628;2022-08-19T05:52:27;19.70;99.90
2999;DHT22;1509;51.964;7.628;2022-08-19T05:54:53;19.80;99.90
2999;DHT22;1509;51.964;7.628;2022-08-19T05:57:20;19.90;99.90
2999;DHT22;1509;51.964;7.628;2022-08-19T05:59:46;20.00;99.90
2999;DHT22;1509;51.964;7.628;2022-08-19T06:02:13;20.20;99.90
2999;DHT22;1509;51.964;7.628;2022-08-19T06:04:39;20.30;99.90
2999;DHT22;1509;51.964;7.628;2022-08-19T06:07:08;20.40;99.90
2999;DHT22;1509;51.964;7.628;2022-08-19T06:09:33;20.50;99.90
2999;DHT22;1509;51.964;7.628;2022-08-19T06:12:00;20.50;99.90
2999;DHT22;1509;51.964;7.628;2022-08-19T06:14:29;20.50;99.90
2999;DHT22;1509;51.964;7.628;2022-08-19T06:16:58;20.40;99.90
2999;DHT22;1509;51.964;7.628;2022-08-19T06:19:25;20.50;99.90
2999;DHT22;1509;51.964;7.628;2022-08-19T06:21:52;20.50;99.90
2999;DHT22;1509;51.964;7.628;2022-08-19T06:24:22;20.50;99.90
2999;DHT22;1509;51.964;7.628;2022-08-19T06:26:49;20.50;99.90
2999;DHT22;1509;51.964;7.628;2022-08-19T06:29:18;20.60;99.90
2999;DHT22;1509;51.964;7.628;2022-08-19T06:31:46;20.60;99.90
2999;DHT22;1509;51.964;7.628;2022-08-19T06:34:15;20.50;99.90
2999;DHT22;1509;51.964;7.628;2022-08-19T06:36:43;20.40;99.90
2999;DHT22;1509;51.964;7.628;2022-08-19T06:39:22;20.40;99.90
2999;DHT22;1509;51.964;7.628;2022-08-19T06:41:51;20.30;99.90
2999;DHT22;1509;51.964;7.628;2022-08-19T06:44:19;20.30;99.90
2999;DHT22;1509;51.964;7.628;2022-08-19T06:46:44;20.30;99.90
2999;DHT22;1509;51.964;7.628;2022-08-19T06:49:10;20.30;99.90
2999;DHT22;1509;51.964;7.628;2022-08-19T06:51:42;20.40;99.90
2999;DHT22;1509;51.964;7.628;2022-08-19T06:54:09;20.50;99.90
2999;DHT22;1509;51.964;7.628;2022-08-19T06:56:35;20.50;99.90
2999;DHT22;1509;51.964;7.628;2022-08-19T06:59:09;20.40;99.90
2999;DHT22;1509;51.964;7.628;2022-08-19T07:01:44;20.20;99.90
2999;DHT22;1509;51.964;7.628;2022-08-19T07:04:13;20.30;99.90
2999;DHT22;1509;51.964;7.628;2022-08-19T07:06:41;20.40;99.90
2999;DHT22;1509;51.964;7.628;2022-08-19T07:09:09;20.60;99.90
2999;DHT22;1509;51.964;7.628;2022-08-19T07:11:34;20.70;99.90
2999;DHT22;1509;51.964;7.628;2022-08-19T07:14:02;20.70;99.90
2999;DHT22;1509;51.964;7.628;2022-08-19T07:16:28;20.70;99.90
2999;DHT22;1509;51.964;7.628;2022-08-19T07:18:54;20.60;99.90
2999;DHT22;1509;51.964;7.628;2022-08-19T07:21:25;20.60;99.90
2999;DHT22;1509;51.964;7.628;2022-08-19T07:23:59;20.60;99.90
2999;DHT22;1509;51.964;7.628;2022-08-19T07:26:29;20.70;99.90
2999;DHT22;1509;51.964;7.628;2022-08-19T07:28:56;20.80;99.90
2999;DHT22;1509;51.964;7.628;2022-08-19T07:31:25;20.80;99.90
2999;DHT22;1509;51.964;7.628;2022-08-19T07:33:53;20.90;99.90
2999;DHT22;1509;51.964;7.628;2022-08-19T07:36:23;21.00;99.90
2999;DHT22;1509;51.964;7.628;2022-08-19T07:38:50;21.10;99.90
2999;DHT22;1509;51.964;7.628;2022-08-19T07:41:19;21.30;99.90
2999;DHT22;1509;51.964;7.628;2022-08-19T07:43:45;21.40;99.90
2999;DHT22;1509;51.964;7.628;2022-08-19T07:46:12;21.50;99.90
2999;DHT22;1509;51.964;7.628;2022-08-19T07:48:40;21.60;99.90
2999;DHT22;1509;51.964;7.628;2022-08-19T07:51:08;21.80;99.90
2999;DHT22;1509;51.964;7.628;2022-08-19T07:53:36;21.80;99.90
2999;DHT22;1509;51.964;7.628;2022-08-19T07:56:03;21.90;99.90
2999;DHT22;1509;51.964;7.628;2022-08-19T07:58:32;22.00;99.90
2999;DHT22;1509;51.964;7.628;2022-08-19T08:00:58;22.20;99.90
2999;DHT22;1509;51.964;7.628;2022-08-19T08:03:24;22.40;99.90
2999;DHT22;1509;51.964;7.628;2022-08-19T08:06:10;22.40;99.90
2999;DHT22;1509;51.964;7.628;2022-08-19T08:08:55;22.40;99.90
2999;DHT22;1509;51.964;7.628;2022-08-19T08:11:59;22.50;99.90
2999;DHT22;1509;51.964;7.628;2022-08-19T08:14:35;22.50;99.90
2999;DHT22;1509;51.964;7.628;2022-08-19T08:17:03;22.60;99.90
2999;DHT22;1509;51.964;7.628;2022-08-19T08:19:29;22.60;99.90
2999;DHT22;1509;51.964;7.628;2022-08-19T08:22:00;22.70;99.90
2999;DHT22;1509;51.964;7.628;2022-08-19T08:24:28;22.80;99.90
2999;DHT22;1509;51.964;7.628;2022-08-19T08:26:57;23.00;99.90
2999;DHT22;1509;51.964;7.628;2022-08-19T08:29:24;23.10;99.90
2999;DHT22;1509;51.964;7.628;2022-08-19T08:31:51;23.30;99.90
2999;DHT22;1509;51.964;7.628;2022-08-19T08:34:17;23.60;99.90
2999;DHT22;1509;51.964;7.628;2022-08-19T08:36:44;23.60;99.90
2999;DHT22;1509;51.964;7.628;2022-08-19T08:39:15;23.50;99.90
2999;DHT22;1509;51.964;7.628;2022-08-19T08:42:07;23.50;99.90
2999;DHT22;1509;51.964;7.628;2022-08-19T08:44:56;23.60;99.90
2999;DHT22;1509;51.964;7.628;2022-08-19T08:47:25;23.90;99.90
2999;DHT22;1509;51.964;7.628;2022-08-19T08:50:01;24.20;99.90
2999;DHT22;1509;51.964;7.628;2022-08-19T08:52:31;24.60;99.90
2999;DHT22;1509;51.964;7.628;2022-08-19T08:55:08;25.10;99.90
2999;DHT22;1509;51.964;7.628;2022-08-19T09:02:46;27.80;99.90
2999;DHT22;1509;51.964;7.628;2022-08-19T09:05:12;28.40;99.90
2999;DHT22;1509;51.964;7.628;2022-08-19T09:13:12;30.80;99.90
2999;DHT22;1509;51.964;7.628;2022-08-19T09:15:46;31.00;99.90
2999;DHT22;1509;51.964;7.628;2022-08-19T09:18:13;30.40;99.90
2999;DHT22;1509;51.964;7.628;2022-08-19T09:20:39;29.90;99.90
2999;DHT22;1509;51.964;7.628;2022-08-19T09:23:05;28.40;99.90
2999;DHT22;1509;51.964;7.628;2022-08-19T09:25:30;27.20;99.90
2999;DHT22;1509;51.964;7.628;2022-08-19T09:28:00;26.10;99.90
2999;DHT22;1509;51.964;7.628;2022-08-19T09:30:30;25.60;99.90
2999;DHT22;1509;51.964;7.628;2022-08-19T09:32:56;25.50;99.90
2999;DHT22;1509;51.964;7.628;2022-08-19T09:35:24;26.00;99.90
2999;DHT22;1509;51.964;7.628;2022-08-19T09:37:51;25.80;99.90
2999;DHT22;1509;51.964;7.628;2022-08-19T09:40:17;25.70;99.90
2999;DHT22;1509;51.964;7.628;2022-08-19T09:42:44;25.40;99.90
2999;DHT22;1509;51.964;7.628;2022-08-19T09:45:12;25.20;99.90
2999;DHT22;1509;51.964;7.628;2022-08-19T09:47:38;25.30;99.90
2999;DHT22;1509;51.964;7.628;2022-08-19T09:50:08;26.20;99.90
2999;DHT22;1509;51.964;7.628;2022-08-19T09:52:34;28.00;99.90
2999;DHT22;1509;51.964;7.628;2022-08-19T09:55:08;29.90;99.90
2999;DHT22;1509;51.964;7.628;2022-08-19T09:57:37;30.10;99.90
2999;DHT22;1509;51.964;7.628;2022-08-19T10:00:07;29.80;99.90
2999;DHT22;1509;51.964;7.628;2022-08-19T10:02:33;29.20;99.90
2999;DHT22;1509;51.964;7.628;2022-08-19T10:04:59;28.40;99.90
2999;DHT22;1509;51.964;7.628;2022-08-19T10:07:43;29.30;99.90
2999;DHT22;1509;51.964;7.628;2022-08-19T10:10:09;30.80;99.90
2999;DHT22;1509;51.964;7.628;2022-08-19T10:12:34;31.50;99.90
2999;DHT22;1509;51.964;7.628;2022-08-19T10:15:01;32.40;99.90
2999;DHT22;1509;51.964;7.628;2022-08-19T10:17:27;33.30;99.90
2999;DHT22;1509;51.964;7.628;2022-08-19T10:19:54;33.40;99.90
2999;DHT22;1509;51.964;7.628;2022-08-19T10:22:19;31.40;99.90
2999;DHT22;1509;51.964;7.628;2022-08-19T10:24:46;30.90;99.90
2999;DHT22;1509;51.964;7.628;2022-08-19T10:27:12;31.70;99.90
2999;DHT22;1509;51.964;7.628;2022-08-19T10:29:39;32.20;99.90
2999;DHT22;1509;51.964;7.628;2022-08-19T10:32:07;32.20;99.90
2999;DHT22;1509;51.964;7.628;2022-08-19T10:34:34;31.30;99.90
2999;DHT22;1509;51.964;7.628;2022-08-19T10:37:00;30.10;99.90
2999;DHT22;1509;51.964;7.628;2022-08-19T10:39:26;29.20;99.90
2999;DHT22;1509;51.964;7.628;2022-08-19T10:41:54;29.00;99.90
2999;DHT22;1509;51.964;7.628;2022-08-19T10:44:21;29.80;99.90
2999;DHT22;1509;51.964;7.628;2022-08-19T10:46:48;31.10;99.90
2999;DHT22;1509;51.964;7.628;2022-08-19T10:49:14;33.00;99.90
2999;DHT22;1509;51.964;7.628;2022-08-19T10:51:40;33.80;99.90
2999;DHT22;1509;51.964;7.628;2022-08-19T10:54:25;34.30;99.90
2999;DHT22;1509;51.964;7.628;2022-08-19T10:57:10;34.70;99.90
2999;DHT22;1509;51.964;7.628;2022-08-19T10:59:36;34.90;99.90
2999;DHT22;1509;51.964;7.628;2022-08-19T11:02:06;35.60;99.90
2999;DHT22;1509;51.964;7.628;2022-08-19T11:04:32;36.20;99.90
2999;DHT22;1509;51.964;7.628;2022-08-19T11:06:58;36.40;99.90
2999;DHT22;1509;51.964;7.628;2022-08-19T11:09:25;37.10;99.90
2999;DHT22;1509;51.964;7.628;2022-08-19T11:11:55;38.20;99.90
2999;DHT22;1509;51.964;7.628;2022-08-19T11:14:22;37.70;99.90
2999;DHT22;1509;51.964;7.628;2022-08-19T11:16:49;37.90;99.90
2999;DHT22;1509;51.964;7.628;2022-08-19T11:19:16;37.80;99.90
2999;DHT22;1509;51.964;7.628;2022-08-19T11:21:46;37.40;99.90
2999;DHT22;1509;51.964;7.628;2022-08-19T11:24:18;37.50;99.90
2999;DHT22;1509;51.964;7.628;2022-08-19T11:26:45;36.50;99.90
2999;DHT22;1509;51.964;7.628;2022-08-19T11:29:12;35.00;99.90
2999;DHT22;1509;51.964;7.628;2022-08-19T11:31:40;33.60;99.90
2999;DHT22;1509;51.964;7.628;2022-08-19T11:34:09;31.80;99.90
2999;DHT22;1509;51.964;7.628;2022-08-19T11:36:38;31.50;99.90
2999;DHT22;1509;51.964;7.628;2022-08-19T11:39:06;31.40;99.90
2999;DHT22;1509;51.964;7.628;2022-08-19T11:41:32;32.10;99.90
2999;DHT22;1509;51.964;7.628;2022-08-19T11:43:58;33.00;99.90
2999;DHT22;1509;51.964;7.628;2022-08-19T11:46:25;33.40;99.90
2999;DHT22;1509;51.964;7.628;2022-08-19T11:48:55;34.00;99.90
2999;DHT22;1509;51.964;7.628;2022-08-19T11:51:23;34.40;99.90
2999;DHT22;1509;51.964;7.628;2022-08-19T11:53:50;34.50;99.90
2999;DHT22;1509;51.964;7.628;2022-08-19T11:56:16;34.50;99.90
2999;DHT22;1509;51.964;7.628;2022-08-19T11:58:42;34.60;99.90
2999;DHT22;1509;51.964;7.628;2022-08-19T12:01:11;34.60;99.90
2999;DHT22;1509;51.964;7.628;2022-08-19T12:03:38;35.20;99.90
2999;DHT22;1509;51.964;7.628;2022-08-19T12:06:12;35.40;99.90
2999;DHT22;1509;51.964;7.628;2022-08-19T12:08:40;34.70;99.90
2999;DHT22;1509;51.964;7.628;2022-08-19T12:11:06;34.80;99.90
2999;DHT22;1509;51.964;7.628;2022-08-19T12:13:36;34.40;99.90
2999;DHT22;1509;51.964;7.628;2022-08-19T12:16:10;34.10;99.90
2999;DHT22;1509;51.964;7.628;2022-08-19T12:18:38;34.30;99.90
2999;DHT22;1509;51.964;7.628;2022-08-19T12:21:04;34.30;99.90
2999;DHT22;1509;51.964;7.628;2022-08-19T12:23:30;33.80;99.90
2999;DHT22;1509;51.964;7.628;2022-08-19T12:25:56;33.10;99.90
2999;DHT22;1509;51.964;7.628;2022-08-19T12:28:24;31.80;99.90
2999;DHT22;1509;51.964;7.628;2022-08-19T12:30:50;30.70;99.90
2999;DHT22;1509;51.964;7.628;2022-08-19T12:33:17;29.80;99.90
2999;DHT22;1509;51.964;7.628;2022-08-19T12:35:44;29.80;99.90
2999;DHT22;1509;51.964;7.628;2022-08-19T12:38:12;29.60;99.90
2999;DHT22;1509;51.964;7.628;2022-08-19T12:40:38;29.70;99.90
2999;DHT22;1509;51.964;7.628;2022-08-19T12:43:08;30.60;99.90
2999;DHT22;1509;51.964;7.628;2022-08-19T12:45:34;31.50;99.90
2999;DHT22;1509;51.964;7.628;2022-08-19T12:48:00;31.40;99.90
2999;DHT22;1509;51.964;7.628;2022-08-19T12:50:26;30.90;99.90
2999;DHT22;1509;51.964;7.628;2022-08-19T12:52:51;30.80;99.90
2999;DHT22;1509;51.964;7.628;2022-08-19T12:55:18;32.00;99.90
2999;DHT22;1509;51.964;7.628;2022-08-19T12:57:44;33.40;99.90
2999;DHT22;1509;51.964;7.628;2022-08-19T13:00:14;33.20;99.90
2999;DHT22;1509;51.964;7.628;2022-08-19T13:02:41;33.00;99.90
2999;DHT22;1509;51.964;7.628;2022-08-19T13:05:13;33.10;99.90
2999;DHT22;1509;51.964;7.628;2022-08-19T13:07:40;33.10;99.90
2999;DHT22;1509;51.964;7.628;2022-08-19T13:10:07;33.30;99.90
2999;DHT22;1509;51.964;7.628;2022-08-19T13:12:33;33.00;99.90
2999;DHT22;1509;51.964;7.628;2022-08-19T13:14:59;33.00;99.90
2999;DHT22;1509;51.964;7.628;2022-08-19T13:17:24;33.60;99.90
2999;DHT22;1509;51.964;7.628;2022-08-19T13:19:50;33.60;99.90
2999;DHT22;1509;51.964;7.628;2022-08-19T13:22:16;33.90;99.90
2999;DHT22;1509;51.964;7.628;2022-08-19T13:24:42;33.90;99.90
2999;DHT22;1509;51.964;7.628;2022-08-19T13:27:08;34.10;99.90
2999;DHT22;1509;51.964;7.628;2022-08-19T13:29:33;34.10;99.90
2999;DHT22;1509;51.964;7.628;2022-08-19T13:32:18;33.80;99.90
2999;DHT22;1509;51.964;7.628;2022-08-19T13:35:03;33.20;99.90
2999;DHT22;1509;51.964;7.628;2022-08-19T13:37:29;33.40;99.90
2999;DHT22;1509;51.964;7.628;2022-08-19T13:40:18;33.30;99.90
2999;DHT22;1509;51.964;7.628;2022-08-19T13:42:46;33.20;99.90
2999;DHT22;1509;51.964;7.628;2022-08-19T13:45:14;33.80;99.90
2999;DHT22;1509;51.964;7.628;2022-08-19T13:47:41;34.20;99.90
2999;DHT22;1509;51.964;7.628;2022-08-19T13:50:14;33.30;99.90
2999;DHT22;1509;51.964;7.628;2022-08-19T13:52:40;32.60;99.90
2999;DHT22;1509;51.964;7.628;2022-08-19T13:55:07;32.20;99.90
2999;DHT22;1509;51.964;7.628;2022-08-19T13:57:33;31.70;99.90
2999;DHT22;1509;51.964;7.628;2022-08-19T13:59:59;31.50;99.90
2999;DHT22;1509;51.964;7.628;2022-08-19T14:02:25;31.30;99.90
2999;DHT22;1509;51.964;7.628;2022-08-19T14:04:52;31.20;99.90
2999;DHT22;1509;51.964;7.628;2022-08-19T14:07:17;30.80;99.90
2999;DHT22;1509;51.964;7.628;2022-08-19T14:09:43;30.60;99.90
2999;DHT22;1509;51.964;7.628;2022-08-19T14:12:09;30.30;99.90
2999;DHT22;1509;51.964;7.628;2022-08-19T14:14:38;29.60;99.90
2999;DHT22;1509;51.964;7.628;2022-08-19T14:17:07;29.50;99.90
2999;DHT22;1509;51.964;7.628;2022-08-19T14:19:33;29.40;99.90
2999;DHT22;1509;51.964;7.628;2022-08-19T14:21:59;29.30;99.90
2999;DHT22;1509;51.964;7.628;2022-08-19T14:24:25;28.90;99.90
2999;DHT22;1509;51.964;7.628;2022-08-19T14:26:51;29.00;99.90
2999;DHT22;1509;51.964;7.628;2022-08-19T14:29:17;29.00;99.90
2999;DHT22;1509;51.964;7.628;2022-08-19T14:31:43;29.20;99.90
2999;DHT22;1509;51.964;7.628;2022-08-19T14:34:09;29.00;99.90
2999;DHT22;1509;51.964;7.628;2022-08-19T14:36:36;29.00;99.90
2999;DHT22;1509;51.964;7.628;2022-08-19T14:39:03;28.90;99.90
2999;DHT22;1509;51.964;7.628;2022-08-19T14:41:29;28.80;99.90
2999;DHT22;1509;51.964;7.628;2022-08-19T14:43:56;28.80;99.90
2999;DHT22;1509;51.964;7.628;2022-08-19T14:46:24;28.90;99.90
2999;DHT22;1509;51.964;7.628;2022-08-19T14:48:51;29.10;99.90
2999;DHT22;1509;51.964;7.628;2022-08-19T14:51:17;29.30;99.90
2999;DHT22;1509;51.964;7.628;2022-08-19T14:53:44;29.40;99.90
2999;DHT22;1509;51.964;7.628;2022-08-19T14:56:16;29.30;99.90
2999;DHT22;1509;51.964;7.628;2022-08-19T14:58:42;29.20;99.90
2999;DHT22;1509;51.964;7.628;2022-08-19T15:01:09;28.90;99.90
2999;DHT22;1509;51.964;7.628;2022-08-19T15:03:36;28.80;99.90
2999;DHT22;1509;51.964;7.628;2022-08-19T15:06:03;28.80;99.90
2999;DHT22;1509;51.964;7.628;2022-08-19T15:08:31;28.80;99.90
2999;DHT22;1509;51.964;7.628;2022-08-19T15:10:58;28.60;99.90
2999;DHT22;1509;51.964;7.628;2022-08-19T15:13:26;28.50;99.90
2999;DHT22;1509;51.964;7.628;2022-08-19T15:15:52;28.50;99.90
2999;DHT22;1509;51.964;7.628;2022-08-19T15:18:18;28.50;99.90
2999;DHT22;1509;51.964;7.628;2022-08-19T15:20:46;28.60;99.90
2999;DHT22;1509;51.964;7.628;2022-08-19T15:23:15;28.70;99.90
2999;DHT22;1509;51.964;7.628;2022-08-19T15:25:41;28.60;99.90
2999;DHT22;1509;51.964;7.628;2022-08-19T15:28:07;28.60;99.90
2999;DHT22;1509;51.964;7.628;2022-08-19T15:30:37;28.60;99.90
2999;DHT22;1509;51.964;7.628;2022-08-19T15:33:04;28.50;99.90
2999;DHT22;1509;51.964;7.628;2022-08-19T15:35:31;28.40;99.90
2999;DHT22;1509;51.964;7.628;2022-08-19T15:37:57;28.40;99.90
2999;DHT22;1509;51.964;7.628;2022-08-19T15:40:24;28.40;99.90
2999;DHT22;1509;51.964;7.628;2022-08-19T15:42:51;28.20;99.90
2999;DHT22;1509;51.964;7.628;2022-08-19T15:45:19;28.30;99.90
2999;DHT22;1509;51.964;7.628;2022-08-19T15:47:45;28.20;99.90
2999;DHT22;1509;51.964;7.628;2022-08-19T15:50:19;28.20;99.90
2999;DHT22;1509;51.964;7.628;2022-08-19T15:55:15;28.10;99.90
2999;DHT22;1509;51.964;7.628;2022-08-19T15:57:41;28.10;99.90
2999;DHT22;1509;51.964;7.628;2022-08-19T16:00:25;28.10;99.90
2999;DHT22;1509;51.964;7.628;2022-08-19T16:03:12;28.00;99.90
2999;DHT22;1509;51.964;7.628;2022-08-19T16:05:57;27.90;99.90
2999;DHT22;1509;51.964;7.628;2022-08-19T16:08:42;27.80;99.90
2999;DHT22;1509;51.964;7.628;2022-08-19T16:11:10;27.80;99.90
2999;DHT22;1509;51.964;7.628;2022-08-19T16:13:37;27.80;99.90
2999;DHT22;1509;51.964;7.628;2022-08-19T16:16:04;27.80;99.90
2999;DHT22;1509;51.964;7.628;2022-08-19T16:18:30;27.70;99.90
2999;DHT22;1509;51.964;7.628;2022-08-19T16:20:56;27.60;99.90
2999;DHT22;1509;51.964;7.628;2022-08-19T16:23:22;27.50;99.90
2999;DHT22;1509;51.964;7.628;2022-08-19T16:25:47;27.50;99.90
2999;DHT22;1509;51.964;7.628;2022-08-19T16:28:13;27.50;99.90